Observation data for Childress on 12/09/2018      Previous  Date       Current Mesonet Observations  Soil Data  Daily Summary Page  Observations in Plain Language
KCXS 090600Z 30005KT M03/M08 A3032 RMK A01 T10251082  RH  065%=      5-min Rain = 0
KCXS 090605Z 30005KT M03/M08 A3032 RMK A01 T10271082  RH  066%=      5-min Rain = 0
KCXS 090610Z 29006KT M03/M08 A3033 RMK A01 T10291081  RH  067%=      5-min Rain = 0
KCXS 090615Z 29006KT M03/M08 A3033 RMK A01 T10301080  RH  068%=      5-min Rain = 0
KCXS 090620Z 30006KT M03/M08 A3033 RMK A01 T10321080  RH  069%=      5-min Rain = 0
KCXS 090625Z 30007KT M03/M08 A3033 RMK A01 T10331079  RH  071%=      5-min Rain = 0
KCXS 090630Z 29007KT M03/M08 A3033 RMK A01 T10341079  RH  071%=      5-min Rain = 0
KCXS 090635Z 29007KT M03/M08 A3033 RMK A01 T10341078  RH  071%=      5-min Rain = 0
KCXS 090640Z 29007KT M04/M08 A3033 RMK A01 T10351079  RH  072%=      5-min Rain = 0
KCXS 090645Z 29006KT M04/M08 A3033 RMK A01 T10361080  RH  072%=      5-min Rain = 0
KCXS 090650Z 29006KT M04/M08 A3033 RMK A01 T10371081  RH  072%=      5-min Rain = 0
KCXS 090655Z 30006KT M04/M08 A3032 RMK A01 T10391082  RH  072%=      5-min Rain = 0
KCXS 090700Z 30006KT M04/M08 A3032 RMK A01 T10391082  RH  072%=      5-min Rain = 0
KCXS 090705Z 30006KT M04/M08 A3032 RMK A01 T10401083  RH  072%=      5-min Rain = 0
KCXS 090710Z 30005KT M04/M08 A3032 RMK A01 T10401084  RH  071%=      5-min Rain = 0
KCXS 090715Z 29005KT M04/M09 A3032 RMK A01 T10401085  RH  071%=      5-min Rain = 0
KCXS 090720Z 29006KT M04/M09 A3032 RMK A01 T10411085  RH  071%=      5-min Rain = 0
KCXS 090725Z 28006KT M04/M09 A3032 RMK A01 T10421086  RH  071%=      5-min Rain = 0
KCXS 090730Z 28007KT M04/M09 A3033 RMK A01 T10421086  RH  072%=      5-min Rain = 0
KCXS 090735Z 29007KT M04/M09 A3033 RMK A01 T10421086  RH  071%=      5-min Rain = 0
KCXS 090740Z 29007KT M04/M09 A3033 RMK A01 T10421086  RH  071%=      5-min Rain = 0
KCXS 090745Z 29006KT M04/M09 A3032 RMK A01 T10421087  RH  071%=      5-min Rain = 0
KCXS 090750Z 29006KT M04/M09 A3032 RMK A01 T10421087  RH  071%=      5-min Rain = 0
KCXS 090755Z 30006KT M04/M09 A3032 RMK A01 T10421088  RH  070%=      5-min Rain = 0
KCXS 090800Z 30006KT M04/M09 A3032 RMK A01 T10411088  RH  070%=      5-min Rain = 0
KCXS 090805Z 30006KT M04/M09 A3032 RMK A01 T10411087  RH  070%=      5-min Rain = 0
KCXS 090810Z 29006KT M04/M09 A3032 RMK A01 T10421087  RH  071%=      5-min Rain = 0
KCXS 090815Z 28006KT M04/M09 A3032 RMK A01 T10441085  RH  073%=      5-min Rain = 0
KCXS 090820Z 28006KT M04/M09 A3032 RMK A01 T10441085  RH  073%=      5-min Rain = 0
KCXS 090825Z 29007KT M04/M09 A3032 RMK A01 T10441086  RH  073%=      5-min Rain = 0
KCXS 090830Z 29007KT M04/M09 A3032 RMK A01 T10441086  RH  072%=      5-min Rain = 0
KCXS 090835Z 30007KT M04/M09 A3033 RMK A01 T10431087  RH  071%=      5-min Rain = 0
KCXS 090840Z 30007KT M04/M09 A3033 RMK A01 T10431087  RH  071%=      5-min Rain = 0
KCXS 090845Z 29007KT M04/M09 A3033 RMK A01 T10441087  RH  072%=      5-min Rain = 0
KCXS 090850Z 30007KT M04/M09 A3032 RMK A01 T10441086  RH  073%=      5-min Rain = 0
KCXS 090855Z 29007KT M04/M09 A3032 RMK A01 T10441086  RH  073%=      5-min Rain = 0
KCXS 090900Z 29007KT M05/M09 A3032 RMK A01 T10451086  RH  073%=      5-min Rain = 0
KCXS 090905Z 29007KT M04/M09 A3032 RMK A01 T10441086  RH  073%=      5-min Rain = 0
KCXS 090910Z 29007KT M05/M09 A3032 RMK A01 T10451086  RH  073%=      5-min Rain = 0
KCXS 090915Z 29008KT M05/M09 A3032 RMK A01 T10451087  RH  073%=      5-min Rain = 0
KCXS 090920Z 29008KT M05/M09 A3033 RMK A01 T10451087  RH  073%=      5-min Rain = 0
KCXS 090925Z 30008KT M05/M09 A3033 RMK A01 T10461086  RH  074%=      5-min Rain = 0
KCXS 090930Z 29008KT M05/M09 A3033 RMK A01 T10471086  RH  074%=      5-min Rain = 0
KCXS 090935Z 29008KT M05/M09 A3033 RMK A01 T10471086  RH  074%=      5-min Rain = 0
KCXS 090940Z 29007KT M05/M09 A3033 RMK A01 T10481086  RH  075%=      5-min Rain = 0
KCXS 090945Z 30007KT M05/M09 A3033 RMK A01 T10491085  RH  076%=      5-min Rain = 0
KCXS 090950Z 30006KT M05/M08 A3033 RMK A01 T10501084  RH  077%=      5-min Rain = 0
KCXS 090955Z 30007KT M05/M08 A3032 RMK A01 T10501084  RH  077%=      5-min Rain = 0
KCXS 091000Z 30007KT M05/M08 A3032 RMK A01 T10511083  RH  078%=      5-min Rain = 0
KCXS 091005Z 30006KT M05/M08 A3032 RMK A01 T10521082  RH  079%=      5-min Rain = 0
KCXS 091010Z 31006KT M05/M08 A3032 RMK A01 T10531083  RH  080%=      5-min Rain = 0
KCXS 091015Z 32006KT M05/M08 A3032 RMK A01 T10541083  RH  080%=      5-min Rain = 0
KCXS 091020Z 31006KT M05/M08 A3032 RMK A01 T10541083  RH  080%=      5-min Rain = 0
KCXS 091025Z 31006KT M06/M08 A3032 RMK A01 T10551083  RH  080%=      5-min Rain = 0
KCXS 091030Z 31007KT M05/M08 A3032 RMK A01 T10541084  RH  079%=      5-min Rain = 0
KCXS 091035Z 31007KT M05/M09 A3033 RMK A01 T10521086  RH  077%=      5-min Rain = 0
KCXS 091040Z 31007KT M05/M09 A3033 RMK A01 T10501088  RH  075%=      5-min Rain = 0
KCXS 091045Z 31006KT M05/M09 A3033 RMK A01 T10521088  RH  076%=      5-min Rain = 0
KCXS 091050Z 30006KT M05/M09 A3033 RMK A01 T10531088  RH  076%=      5-min Rain = 0
KCXS 091055Z 30006KT M05/M09 A3033 RMK A01 T10531088  RH  076%=      5-min Rain = 0
KCXS 091100Z 31007KT M05/M09 A3033 RMK A01 T10531088  RH  077%=      5-min Rain = 0
KCXS 091105Z 31007KT M05/M09 A3033 RMK A01 T10531087  RH  077%=      5-min Rain = 0
KCXS 091110Z 31007KT M05/M09 A3033 RMK A01 T10521087  RH  077%=      5-min Rain = 0
KCXS 091115Z 31007KT M05/M09 A3033 RMK A01 T10511087  RH  076%=      5-min Rain = 0
KCXS 091120Z 31008KT M05/M09 A3033 RMK A01 T10481088  RH  074%=      5-min Rain = 0
KCXS 091125Z 32007KT M05/M09 A3033 RMK A01 T10481089  RH  073%=      5-min Rain = 0
KCXS 091130Z 32008KT M05/M09 A3033 RMK A01 T10481089  RH  073%=      5-min Rain = 0
KCXS 091135Z 31007KT M05/M09 A3033 RMK A01 T10481090  RH  073%=      5-min Rain = 0
KCXS 091140Z 31007KT M05/M09 A3033 RMK A01 T10491090  RH  073%=      5-min Rain = 0
KCXS 091145Z 31007KT M05/M09 A3033 RMK A01 T10491090  RH  073%=      5-min Rain = 0
KCXS 091150Z 32007KT M05/M09 A3033 RMK A01 T10491091  RH  072%=      5-min Rain = 0
KCXS 091155Z 31006KT M05/M09 A3033 RMK A01 T10491091  RH  072%=      5-min Rain = 0
KCXS 091200Z 30006KT M05/M09 A3034 RMK A01 T10491091  RH  072%=      5-min Rain = 0
KCXS 091205Z 30006KT M05/M09 A3034 RMK A01 T10511091  RH  073%=      5-min Rain = 0
KCXS 091210Z 30006KT M05/M09 A3034 RMK A01 T10511091  RH  073%=      5-min Rain = 0
KCXS 091215Z 31006KT M05/M09 A3034 RMK A01 T10501091  RH  073%=      5-min Rain = 0
KCXS 091220Z 31006KT M05/M09 A3034 RMK A01 T10511092  RH  073%=      5-min Rain = 0
KCXS 091225Z 30006KT M05/M09 A3034 RMK A01 T10511092  RH  073%=      5-min Rain = 0
KCXS 091230Z 30006KT M05/M09 A3034 RMK A01 T10521092  RH  073%=      5-min Rain = 0
KCXS 091235Z 30006KT M05/M09 A3034 RMK A01 T10531091  RH  074%=      5-min Rain = 0
KCXS 091240Z 29006KT M05/M09 A3035 RMK A01 T10541090  RH  075%=      5-min Rain = 0
KCXS 091245Z 30006KT M05/M09 A3035 RMK A01 T10531090  RH  075%=      5-min Rain = 0
KCXS 091250Z 29006KT M05/M09 A3035 RMK A01 T10531090  RH  075%=      5-min Rain = 0
KCXS 091255Z 30007KT M05/M09 A3035 RMK A01 T10521090  RH  075%=      5-min Rain = 0
KCXS 091300Z 30007KT M05/M09 A3035 RMK A01 T10521089  RH  075%=      5-min Rain = 0
KCXS 091305Z 31007KT M05/M09 A3035 RMK A01 T10511089  RH  075%=      5-min Rain = 0
KCXS 091310Z 31007KT M05/M09 A3035 RMK A01 T10501089  RH  074%=      5-min Rain = 0
KCXS 091315Z 31007KT M05/M09 A3036 RMK A01 T10501090  RH  073%=      5-min Rain = 0
KCXS 091320Z 31007KT M05/M09 A3036 RMK A01 T10501090  RH  073%=      5-min Rain = 0
KCXS 091325Z 31007KT M05/M09 A3036 RMK A01 T10491090  RH  073%=      5-min Rain = 0
KCXS 091330Z 31007KT M05/M09 A3036 RMK A01 T10491091  RH  072%=      5-min Rain = 0
KCXS 091335Z 31007KT M05/M09 A3036 RMK A01 T10481091  RH  072%=      5-min Rain = 0
KCXS 091340Z 30008KT M05/M09 A3036 RMK A01 T10481091  RH  072%=      5-min Rain = 0
KCXS 091345Z 31008KT M05/M09 A3036 RMK A01 T10471091  RH  071%=      5-min Rain = 0
KCXS 091350Z 31008KT M05/M09 A3036 RMK A01 T10471091  RH  071%=      5-min Rain = 0
KCXS 091355Z 31008KT M05/M09 A3037 RMK A01 T10461090  RH  071%=      5-min Rain = 0
KCXS 091400Z 31008KT M04/M09 A3037 RMK A01 T10441090  RH  070%=      5-min Rain = 0
KCXS 091405Z 31007KT M04/M09 A3037 RMK A01 T10431089  RH  070%=      5-min Rain = 0
KCXS 091410Z 31006KT M04/M09 A3037 RMK A01 T10431087  RH  071%=      5-min Rain = 0
KCXS 091415Z 30006KT M04/M09 A3037 RMK A01 T10421085  RH  072%=      5-min Rain = 0
KCXS 091420Z 30006KT M04/M08 A3037 RMK A01 T10401083  RH  072%=      5-min Rain = 0
KCXS 091425Z 30007KT M04/M08 A3038 RMK A01 T10391081  RH  072%=      5-min Rain = 0
KCXS 091430Z 30006KT M04/M08 A3038 RMK A01 T10361078  RH  073%=      5-min Rain = 0
KCXS 091435Z 30006KT M03/M08 A3038 RMK A01 T10331075  RH  072%=      5-min Rain = 0
KCXS 091440Z 30006KT M03/M07 A3038 RMK A01 T10291073  RH  072%=      5-min Rain = 0
KCXS 091445Z 30006KT M03/M07 A3038 RMK A01 T10261069  RH  072%=      5-min Rain = 0
KCXS 091450Z 30007KT M02/M07 A3039 RMK A01 T10241069  RH  072%=      5-min Rain = 0
KCXS 091455Z 30006KT M02/M07 A3039 RMK A01 T10231068  RH  071%=      5-min Rain = 0
KCXS 091500Z 30005KT M02/M06 A3039 RMK A01 T10201064  RH  072%=      5-min Rain = 0
KCXS 091505Z 30005KT M02/M07 A3039 RMK A01 T10171067  RH  068%=      5-min Rain = 0
KCXS 091510Z 30006KT M02/M07 A3039 RMK A01 T10151067  RH  068%=      5-min Rain = 0
KCXS 091515Z 30006KT M01/M07 A3039 RMK A01 T10131068  RH  066%=      5-min Rain = 0
KCXS 091520Z 31006KT M01/M07 A304 RMK A01 T10101065  RH  066%=      5-min Rain = 0
KCXS 091525Z 32006KT M01/M07 A304 RMK A01 T10071066  RH  064%=      5-min Rain = 0
KCXS 091530Z 31005KT M00/M06 A304 RMK A01 T10041064  RH  064%=      5-min Rain = 0
KCXS 091535Z 30005KT M00/M06 A3041 RMK A01 T10031064  RH  064%=      5-min Rain = 0
KCXS 091540Z 31005KT 00/06 A3041 RMK A01 T00-00-62  RH  063%=      5-min Rain = 0
KCXS 091545Z 31005KT 01/M07 A3041 RMK A01 T00061066  RH  059%=      5-min Rain = 0
KCXS 091550Z 31005KT 01/M07 A3041 RMK A01 T00101066  RH  057%=      5-min Rain = 0
KCXS 091555Z 30005KT 01/M07 A3041 RMK A01 T00111069  RH  055%=      5-min Rain = 0
KCXS 091600Z 30005KT 01/M07 A3041 RMK A01 T00141068  RH  055%=      5-min Rain = 0
KCXS 091605Z 31005KT 02/M07 A3041 RMK A01 T00161069  RH  053%=      5-min Rain = 0
KCXS 091610Z 30005KT 02/M07 A3041 RMK A01 T00171070  RH  052%=      5-min Rain = 0
KCXS 091615Z 31005KT 02/M07 A3041 RMK A01 T00201068  RH  052%=      5-min Rain = 0
KCXS 091620Z 31004KT 02/M07 A3041 RMK A01 T00221065  RH  052%=      5-min Rain = 0
KCXS 091625Z 31005KT 02/M07 A3041 RMK A01 T00241066  RH  051%=      5-min Rain = 0
KCXS 091630Z 30005KT 03/M07 A3041 RMK A01 T00261067  RH  050%=      5-min Rain = 0
KCXS 091635Z 31006KT 03/M07 A3041 RMK A01 T00301072  RH  047%=      5-min Rain = 0
KCXS 091640Z 31005KT 03/M08 A3041 RMK A01 T00321076  RH  045%=      5-min Rain = 0
KCXS 091645Z 31006KT 04/M08 A3041 RMK A01 T00351075  RH  045%=      5-min Rain = 0
KCXS 091650Z 31006KT 04/M08 A3041 RMK A01 T00361076  RH  044%=      5-min Rain = 0
KCXS 091655Z 31006KT 04/M08 A3041 RMK A01 T00401079  RH  041%=      5-min Rain = 0
KCXS 091700Z 32005KT 04/M08 A3041 RMK A01 T00391083  RH  040%=      5-min Rain = 0
KCXS 091705Z 31006KT 04/M08 A3041 RMK A01 T00411084  RH  040%=      5-min Rain = 0
KCXS 091710Z 32005KT 04/M09 A304 RMK A01 T00441086  RH  038%=      5-min Rain = 0
KCXS 091715Z 34005KT 05/M09 A304 RMK A01 T00451093  RH  036%=      5-min Rain = 0
KCXS 091720Z 33005KT 05/M09 A304 RMK A01 T00481091  RH  036%=      5-min Rain = 0
KCXS 091725Z 35005KT 05/M09 A304 RMK A01 T00491094  RH  035%=      5-min Rain = 0
KCXS 091730Z 35004KT 05/M09 A3039 RMK A01 T00531091  RH  034%=      5-min Rain = 0
KCXS 091735Z 33006KT 06/M09 A3039 RMK A01 T00551092  RH  034%=      5-min Rain = 0
KCXS 091740Z 33005KT 05/M09 A3039 RMK A01 T00541093  RH  034%=      5-min Rain = 0
KCXS 091745Z 34007KT 06/M10 A3039 RMK A01 T00551095  RH  033%=      5-min Rain = 0
KCXS 091750Z 35008KT 06/M09 A3039 RMK A01 T00571094  RH  033%=      5-min Rain = 0
KCXS 091755Z 34007KT 06/M09 A3039 RMK A01 T00591093  RH  033%=      5-min Rain = 0
KCXS 091800Z 36007KT 06/M10 A3038 RMK A01 T00591095  RH  032%=      5-min Rain = 0
KCXS 091805Z 35006KT 06/M09 A3038 RMK A01 T00581094  RH  033%=      5-min Rain = 0
KCXS 091810Z 34007KT 06/M09 A3038 RMK A01 T00591091  RH  033%=      5-min Rain = 0
KCXS 091815Z 34006KT 06/M10 A3038 RMK A01 T00621099  RH  030%=      5-min Rain = 0
KCXS 091820Z 35005KT 06/M10 A3038 RMK A01 T00631097  RH  031%=      5-min Rain = 0
KCXS 091825Z 33005KT 06/M10 A3038 RMK A01 T00631098  RH  030%=      5-min Rain = 0
KCXS 091830Z 34006KT 07/M10 A3038 RMK A01 T00651099  RH  030%=      5-min Rain = 0
KCXS 091835Z 35006KT 07/M10 A3037 RMK A01 T00691098  RH  029%=      5-min Rain = 0
KCXS 091840Z 33005KT 07/M10 A3037 RMK A01 T00681100  RH  029%=      5-min Rain = 0
KCXS 091845Z 34006KT 07/M10 A3037 RMK A01 T00681104  RH  028%=      5-min Rain = 0
KCXS 091850Z 34004KT 07/M11 A3037 RMK A01 T00691110  RH  026%=      5-min Rain = 0
KCXS 091855Z 34004KT 07/M12 A3036 RMK A01 T00731119  RH  024%=      5-min Rain = 0
KCXS 091900Z 33004KT 07/M12 A3036 RMK A01 T00731119  RH  024%=      5-min Rain = 0
KCXS 091905Z 34003KT 07/M11 A3036 RMK A01 T00731110  RH  026%=      5-min Rain = 0
KCXS 091910Z 05004KT 08/M11 A3035 RMK A01 T00751113  RH  025%=      5-min Rain = 0
KCXS 091915Z 03004KT 08/M11 A3035 RMK A01 T00791113  RH  024%=      5-min Rain = 0
KCXS 091920Z 35004KT 08/M12 A3035 RMK A01 T00771121  RH  023%=      5-min Rain = 0
KCXS 091925Z 04004KT 08/M13 A3035 RMK A01 T00771126  RH  022%=      5-min Rain = 0
KCXS 091930Z 04003KT 08/M13 A3035 RMK A01 T00771125  RH  022%=      5-min Rain = 0
KCXS 091935Z 35003KT 08/M12 A3035 RMK A01 T00801117  RH  023%=      5-min Rain = 0
KCXS 091940Z 34004KT 08/M13 A3035 RMK A01 T00811128  RH  021%=      5-min Rain = 0
KCXS 091945Z 36004KT 08/M12 A3034 RMK A01 T00811121  RH  022%=      5-min Rain = 0
KCXS 091950Z 08001KT 08/M13 A3034 RMK A01 T00811125  RH  022%=      5-min Rain = 0
KCXS 091955Z 32006KT 09/M12 A3034 RMK A01 T00851120  RH  022%=      5-min Rain = 0
KCXS 092000Z 34004KT 09/M13 A3034 RMK A01 T00851130  RH  020%=      5-min Rain = 0
KCXS 092005Z 35006KT 09/M12 A3033 RMK A01 T00851124  RH  021%=      5-min Rain = 0
KCXS 092010Z 35006KT 09/M12 A3033 RMK A01 T00871122  RH  021%=      5-min Rain = 0
KCXS 092015Z 36005KT 09/M13 A3033 RMK A01 T00851128  RH  020%=      5-min Rain = 0
KCXS 092020Z 33006KT 09/M12 A3034 RMK A01 T00861120  RH  022%=      5-min Rain = 0
KCXS 092025Z 33004KT 09/M12 A3034 RMK A01 T00871118  RH  022%=      5-min Rain = 0
KCXS 092030Z 36005KT 09/M12 A3033 RMK A01 T00881118  RH  022%=      5-min Rain = 0
KCXS 092035Z 33004KT 09/M12 A3033 RMK A01 T00871119  RH  022%=      5-min Rain = 0
KCXS 092040Z 02003KT 09/M12 A3033 RMK A01 T00871119  RH  022%=      5-min Rain = 0
KCXS 092045Z 02003KT 09/M12 A3033 RMK A01 T00881121  RH  021%=      5-min Rain = 0
KCXS 092050Z 35004KT 09/M12 A3033 RMK A01 T00891119  RH  021%=      5-min Rain = 0
KCXS 092055Z 36004KT 09/M12 A3033 RMK A01 T00891122  RH  021%=      5-min Rain = 0
KCXS 092100Z 02003KT 09/M12 A3033 RMK A01 T00901124  RH  020%=      5-min Rain = 0
KCXS 092105Z 02003KT 09/M12 A3033 RMK A01 T00921120  RH  021%=      5-min Rain = 0
KCXS 092110Z 32003KT 09/M12 A3033 RMK A01 T00901124  RH  020%=      5-min Rain = 0
KCXS 092115Z 27001KT 09/M13 A3033 RMK A01 T00921125  RH  020%=      5-min Rain = 0
KCXS 092120Z 36003KT 09/M12 A3033 RMK A01 T00941121  RH  020%=      5-min Rain = 0
KCXS 092125Z 33001KT 09/M12 A3033 RMK A01 T00941121  RH  021%=      5-min Rain = 0
KCXS 092130Z 23003KT 10/M12 A3033 RMK A01 T00961117  RH  021%=      5-min Rain = 0
KCXS 092135Z 21003KT 10/M11 A3033 RMK A01 T00971113  RH  022%=      5-min Rain = 0
KCXS 092140Z 23006KT 10/M09 A3033 RMK A01 T00961087  RH  026%=      5-min Rain = 0
KCXS 092145Z 22006KT 10/M09 A3033 RMK A01 T00951086  RH  027%=      5-min Rain = 0
KCXS 092150Z 21006KT 09/M09 A3033 RMK A01 T00931087  RH  027%=      5-min Rain = 0
KCXS 092155Z 19005KT 09/M09 A3033 RMK A01 T00941087  RH  027%=      5-min Rain = 0
KCXS 092200Z 18005KT 09/M09 A3033 RMK A01 T00941086  RH  027%=      5-min Rain = 0
KCXS 092205Z 22006KT 09/M09 A3033 RMK A01 T00931093  RH  026%=      5-min Rain = 0
KCXS 092210Z 24005KT 09/M10 A3033 RMK A01 T00921096  RH  025%=      5-min Rain = 0
KCXS 092215Z 23005KT 09/M09 A3033 RMK A01 T00931094  RH  026%=      5-min Rain = 0
KCXS 092220Z 24005KT 09/M10 A3033 RMK A01 T00921096  RH  025%=      5-min Rain = 0
KCXS 092225Z 24005KT 09/M09 A3033 RMK A01 T00921093  RH  026%=      5-min Rain = 0
KCXS 092230Z 23005KT 09/M09 A3033 RMK A01 T00911093  RH  026%=      5-min Rain = 0
KCXS 092235Z 22004KT 09/M10 A3033 RMK A01 T00911095  RH  026%=      5-min Rain = 0
KCXS 092240Z 25005KT 09/M10 A3033 RMK A01 T00921096  RH  025%=      5-min Rain = 0
KCXS 092245Z 26005KT 09/M10 A3033 RMK A01 T00911096  RH  026%=      5-min Rain = 0
KCXS 092250Z 24005KT 09/M09 A3033 RMK A01 T00901093  RH  026%=      5-min Rain = 0
KCXS 092255Z 22005KT 09/M09 A3033 RMK A01 T00871085  RH  029%=      5-min Rain = 0
KCXS 092300Z 22005KT 08/M08 A3033 RMK A01 T00841081  RH  030%=      5-min Rain = 0
KCXS 092305Z 22004KT 08/M08 A3033 RMK A01 T00811078  RH  031%=      5-min Rain = 0
KCXS 092310Z 21005KT 08/M08 A3033 RMK A01 T00781077  RH  033%=      5-min Rain = 0
KCXS 092315Z 21005KT 07/M08 A3033 RMK A01 T00741075  RH  034%=      5-min Rain = 0
KCXS 092320Z 22004KT 07/M08 A3033 RMK A01 T00711076  RH  034%=      5-min Rain = 0
KCXS 092325Z 22004KT 07/M08 A3033 RMK A01 T00701081  RH  033%=      5-min Rain = 0
KCXS 092330Z 21004KT 07/M08 A3033 RMK A01 T00691082  RH  033%=      5-min Rain = 0
KCXS 092335Z 21004KT 07/M08 A3033 RMK A01 T00661082  RH  034%=      5-min Rain = 0
KCXS 092340Z 21004KT 07/M08 A3033 RMK A01 T00661082  RH  034%=      5-min Rain = 0
KCXS 092345Z 21004KT 07/M08 A3033 RMK A01 T00661081  RH  034%=      5-min Rain = 0
KCXS 092350Z 20004KT 06/M08 A3033 RMK A01 T00641080  RH  035%=      5-min Rain = 0
KCXS 092355Z 20004KT 06/M08 A3033 RMK A01 T00631080  RH  035%=      5-min Rain = 0
KCXS 100000Z 20004KT 06/M08 A3033 RMK A01 T00641080  RH  035%=      5-min Rain = 0
KCXS 100005Z 20004KT 07/M08 A3034 RMK A01 T00651082  RH  034%=      5-min Rain = 0
KCXS 100010Z 20004KT 07/M08 A3034 RMK A01 T00651082  RH  034%=      5-min Rain = 0
KCXS 100015Z 20005KT 06/M08 A3033 RMK A01 T00631081  RH  035%=      5-min Rain = 0
KCXS 100020Z 20005KT 06/M08 A3034 RMK A01 T00581079  RH  036%=      5-min Rain = 0
KCXS 100025Z 20005KT 06/M08 A3034 RMK A01 T00581079  RH  037%=      5-min Rain = 0
KCXS 100030Z 20004KT 06/M08 A3034 RMK A01 T00581077  RH  037%=      5-min Rain = 0
KCXS 100035Z 21005KT 06/M08 A3034 RMK A01 T00561075  RH  038%=      5-min Rain = 0
KCXS 100040Z 21005KT 05/M08 A3034 RMK A01 T00531075  RH  039%=      5-min Rain = 0
KCXS 100045Z 21005KT 05/M08 A3034 RMK A01 T00531075  RH  039%=      5-min Rain = 0
KCXS 100050Z 22006KT 05/M08 A3034 RMK A01 T00521078  RH  039%=      5-min Rain = 0
KCXS 100055Z 22006KT 05/M08 A3035 RMK A01 T00511079  RH  038%=      5-min Rain = 0
KCXS 100100Z 22007KT 05/M08 A3035 RMK A01 T00501079  RH  039%=      5-min Rain = 0
KCXS 100105Z 22007KT 05/M08 A3035 RMK A01 T00491078  RH  039%=      5-min Rain = 0
KCXS 100110Z 22007KT 05/M08 A3035 RMK A01 T00471079  RH  039%=      5-min Rain = 0
KCXS 100115Z 22007KT 05/M08 A3035 RMK A01 T00471081  RH  039%=      5-min Rain = 0
KCXS 100120Z 22007KT 05/M09 A3035 RMK A01 T00471085  RH  038%=      5-min Rain = 0
KCXS 100125Z 22007KT 05/M09 A3035 RMK A01 T00471090  RH  036%=      5-min Rain = 0
KCXS 100130Z 22007KT 05/M09 A3035 RMK A01 T00461094  RH  035%=      5-min Rain = 0
KCXS 100135Z 22008KT 05/M10 A3035 RMK A01 T00461097  RH  035%=      5-min Rain = 0
KCXS 100140Z 22008KT 05/M10 A3035 RMK A01 T00451098  RH  034%=      5-min Rain = 0
KCXS 100145Z 21008KT 05/M10 A3035 RMK A01 T00451095  RH  035%=      5-min Rain = 0
KCXS 100150Z 22008KT 04/M09 A3035 RMK A01 T00431089  RH  037%=      5-min Rain = 0
KCXS 100155Z 22008KT 04/M08 A3035 RMK A01 T00401081  RH  041%=      5-min Rain = 0
KCXS 100200Z 22009KT 04/M07 A3035 RMK A01 T00381074  RH  044%=      5-min Rain = 0
KCXS 100205Z 22009KT 04/M07 A3035 RMK A01 T00381074  RH  044%=      5-min Rain = 0
KCXS 100210Z 22008KT 04/M07 A3034 RMK A01 T00381072  RH  045%=      5-min Rain = 0
KCXS 100215Z 23008KT 04/M06 A3035 RMK A01 T00371064  RH  048%=      5-min Rain = 0
KCXS 100220Z 23009KT 04/M06 A3035 RMK A01 T00361058  RH  050%=      5-min Rain = 0
KCXS 100225Z 23009KT 03/M06 A3034 RMK A01 T00341056  RH  052%=      5-min Rain = 0
KCXS 100230Z 23009KT 04/M05 A3035 RMK A01 T00351053  RH  053%=      5-min Rain = 0
KCXS 100235Z 23009KT 03/M05 A3035 RMK A01 T00331050  RH  054%=      5-min Rain = 0
KCXS 100240Z 24009KT 03/M05 A3035 RMK A01 T00311048  RH  056%=      5-min Rain = 0
KCXS 100245Z 24009KT 03/M05 A3035 RMK A01 T00321046  RH  057%=      5-min Rain = 0
KCXS 100250Z 24009KT 03/M04 A3035 RMK A01 T00321043  RH  058%=      5-min Rain = 0
KCXS 100255Z 25009KT 03/M04 A3035 RMK A01 T00281042  RH  060%=      5-min Rain = 0
KCXS 100300Z 25008KT 03/M04 A3035 RMK A01 T00251042  RH  062%=      5-min Rain = 0
KCXS 100305Z 26008KT 02/M04 A3036 RMK A01 T00231043  RH  062%=      5-min Rain = 0
KCXS 100310Z 26008KT 02/M04 A3036 RMK A01 T00231043  RH  062%=      5-min Rain = 0
KCXS 100315Z 26008KT 03/M04 A3036 RMK A01 T00251043  RH  061%=      5-min Rain = 0
KCXS 100320Z 25008KT 03/M04 A3036 RMK A01 T00281043  RH  060%=      5-min Rain = 0
KCXS 100325Z 25008KT 03/M04 A3035 RMK A01 T00291042  RH  059%=      5-min Rain = 0
KCXS 100330Z 25007KT 03/M04 A3035 RMK A01 T00301042  RH  059%=      5-min Rain = 0
KCXS 100335Z 25007KT 03/M04 A3035 RMK A01 T00301042  RH  060%=      5-min Rain = 0
KCXS 100340Z 25007KT 03/M04 A3035 RMK A01 T00301040  RH  060%=      5-min Rain = 0
KCXS 100345Z 25008KT 03/M04 A3035 RMK A01 T00301039  RH  061%=      5-min Rain = 0
KCXS 100350Z 25008KT 03/M04 A3035 RMK A01 T00301040  RH  060%=      5-min Rain = 0
KCXS 100355Z 25008KT 03/M04 A3035 RMK A01 T00341040  RH  059%=      5-min Rain = 0
KCXS 100400Z 25008KT 04/M04 A3035 RMK A01 T00381038  RH  058%=      5-min Rain = 0
KCXS 100405Z 26007KT 04/M04 A3035 RMK A01 T00391035  RH  059%=      5-min Rain = 0
KCXS 100410Z 26006KT 04/M03 A3035 RMK A01 T00371034  RH  060%=      5-min Rain = 0
KCXS 100415Z 26006KT 04/M03 A3035 RMK A01 T00361032  RH  061%=      5-min Rain = 0
KCXS 100420Z 26006KT 03/M03 A3035 RMK A01 T00341031  RH  063%=      5-min Rain = 0
KCXS 100425Z 27006KT 03/M03 A3035 RMK A01 T00321030  RH  064%=      5-min Rain = 0
KCXS 100430Z 26008KT 03/M03 A3034 RMK A01 T00301028  RH  066%=      5-min Rain = 0
KCXS 100435Z 26008KT 03/M03 A3034 RMK A01 T00291027  RH  067%=      5-min Rain = 0
KCXS 100440Z 27009KT 03/M03 A3035 RMK A01 T00311026  RH  067%=      5-min Rain = 0
KCXS 100445Z 27008KT 03/M03 A3035 RMK A01 T00301027  RH  067%=      5-min Rain = 0
KCXS 100450Z 28009KT 03/M03 A3035 RMK A01 T00251028  RH  069%=      5-min Rain = 0
KCXS 100455Z 28009KT 02/M03 A3035 RMK A01 T00231028  RH  069%=      5-min Rain = 0
KCXS 100500Z 28009KT 02/M03 A3035 RMK A01 T00221029  RH  070%=      5-min Rain = 0
KCXS 100505Z 28009KT 02/M03 A3035 RMK A01 T00191029  RH  071%=      5-min Rain = 0
KCXS 100510Z 28010KT 02/M03 A3035 RMK A01 T00181029  RH  071%=      5-min Rain = 0
KCXS 100515Z 28010KT 02/M03 A3035 RMK A01 T00171029  RH  072%=      5-min Rain = 0
KCXS 100520Z 27010KT 02/M03 A3035 RMK A01 T00151029  RH  073%=      5-min Rain = 0
KCXS 100525Z 27010KT 01/M03 A3035 RMK A01 T00141028  RH  074%=      5-min Rain = 0
KCXS 100530Z 27009KT 02/M03 A3035 RMK A01 T00151026  RH  074%=      5-min Rain = 0
KCXS 100535Z 28009KT 02/M02 A3035 RMK A01 T00171024  RH  075%=      5-min Rain = 0
KCXS 100540Z 28009KT 02/M02 A3035 RMK A01 T00181023  RH  074%=      5-min Rain = 0
KCXS 100545Z 28009KT 02/M02 A3035 RMK A01 T00181023  RH  075%=      5-min Rain = 0
KCXS 100550Z 28009KT 02/M02 A3035 RMK A01 T00171024  RH  075%=      5-min Rain = 0
KCXS 100555Z 28009KT 01/M03 A3035 RMK A01 T00141025  RH  076%=      5-min Rain = 0

Page generated in 0.0112 seconds.